sensor_id;sensor_type;location;lat;lon;timestamp;temperature;humidity
31271;DHT22;17904;47.420;9.310;2023-02-01T00:01:19;1.60;99.90
31271;DHT22;17904;47.420;9.310;2023-02-01T00:03:45;1.60;99.90
31271;DHT22;17904;47.420;9.310;2023-02-01T00:06:12;1.60;99.90
31271;DHT22;17904;47.420;9.310;2023-02-01T00:08:39;1.70;99.90
31271;DHT22;17904;47.420;9.310;2023-02-01T00:11:08;1.70;99.90
31271;DHT22;17904;47.420;9.310;2023-02-01T00:13:36;1.70;99.90
31271;DHT22;17904;47.420;9.310;2023-02-01T00:16:23;1.60;99.90
31271;DHT22;17904;47.420;9.310;2023-02-01T00:18:58;1.60;99.90
31271;DHT22;17904;47.420;9.310;2023-02-01T00:21:25;1.60;99.90
31271;DHT22;17904;47.420;9.310;2023-02-01T00:23:51;1.60;99.90
31271;DHT22;17904;47.420;9.310;2023-02-01T00:26:30;1.60;99.90
31271;DHT22;17904;47.420;9.310;2023-02-01T00:28:57;1.60;99.90
31271;DHT22;17904;47.420;9.310;2023-02-01T00:31:24;1.60;99.90
31271;DHT22;17904;47.420;9.310;2023-02-01T00:33:54;1.60;99.90
31271;DHT22;17904;47.420;9.310;2023-02-01T00:36:21;1.60;99.90
31271;DHT22;17904;47.420;9.310;2023-02-01T00:38:48;1.60;99.90
31271;DHT22;17904;47.420;9.310;2023-02-01T00:41:15;1.60;99.90
31271;DHT22;17904;47.420;9.310;2023-02-01T00:43:42;1.60;99.90
31271;DHT22;17904;47.420;9.310;2023-02-01T00:46:10;1.50;99.90
31271;DHT22;17904;47.420;9.310;2023-02-01T00:48:37;1.50;99.90
31271;DHT22;17904;47.420;9.310;2023-02-01T00:51:07;1.50;99.90
31271;DHT22;17904;47.420;9.310;2023-02-01T00:53:35;1.40;99.90
31271;DHT22;17904;47.420;9.310;2023-02-01T00:56:02;1.40;99.90
31271;DHT22;17904;47.420;9.310;2023-02-01T00:58:29;1.50;99.90
31271;DHT22;17904;47.420;9.310;2023-02-01T01:01:18;1.40;99.90
31271;DHT22;17904;47.420;9.310;2023-02-01T01:03:46;1.40;99.90
31271;DHT22;17904;47.420;9.310;2023-02-01T01:06:15;1.40;99.90
31271;DHT22;17904;47.420;9.310;2023-02-01T01:08:43;1.40;99.90
31271;DHT22;17904;47.420;9.310;2023-02-01T01:11:13;1.40;99.90
31271;DHT22;17904;47.420;9.310;2023-02-01T01:13:41;1.40;99.90
31271;DHT22;17904;47.420;9.310;2023-02-01T01:16:09;1.30;99.90
31271;DHT22;17904;47.420;9.310;2023-02-01T01:18:36;1.30;99.90
31271;DHT22;17904;47.420;9.310;2023-02-01T01:21:07;1.20;99.90
31271;DHT22;17904;47.420;9.310;2023-02-01T01:23:35;1.20;99.90
31271;DHT22;17904;47.420;9.310;2023-02-01T01:26:12;1.10;99.90
31271;DHT22;17904;47.420;9.310;2023-02-01T01:28:40;1.00;99.90
31271;DHT22;17904;47.420;9.310;2023-02-01T01:31:11;1.00;99.90
31271;DHT22;17904;47.420;9.310;2023-02-01T01:33:38;0.90;99.90
31271;DHT22;17904;47.420;9.310;2023-02-01T01:36:07;0.80;99.90
31271;DHT22;17904;47.420;9.310;2023-02-01T01:38:41;0.80;99.90
31271;DHT22;17904;47.420;9.310;2023-02-01T01:41:16;0.80;99.90
31271;DHT22;17904;47.420;9.310;2023-02-01T01:46:34;0.70;99.90
31271;DHT22;17904;47.420;9.310;2023-02-01T01:49:05;0.70;99.90
31271;DHT22;17904;47.420;9.310;2023-02-01T01:51:38;0.60;99.90
31271;DHT22;17904;47.420;9.310;2023-02-01T01:54:16;0.60;99.90
31271;DHT22;17904;47.420;9.310;2023-02-01T01:56:47;0.50;99.90
31271;DHT22;17904;47.420;9.310;2023-02-01T01:59:18;0.50;99.90
31271;DHT22;17904;47.420;9.310;2023-02-01T02:01:45;0.40;99.90
31271;DHT22;17904;47.420;9.310;2023-02-01T02:04:12;0.40;99.90
31271;DHT22;17904;47.420;9.310;2023-02-01T02:09:52;0.30;99.90
31271;DHT22;17904;47.420;9.310;2023-02-01T02:12:27;0.30;99.90
31271;DHT22;17904;47.420;9.310;2023-02-01T02:14:55;0.20;99.90
31271;DHT22;17904;47.420;9.310;2023-02-01T02:23:26;0.20;99.90
31271;DHT22;17904;47.420;9.310;2023-02-01T02:34:56;0.10;99.90
31271;DHT22;17904;47.420;9.310;2023-02-01T02:38:28;0.10;99.90
31271;DHT22;17904;47.420;9.310;2023-02-01T02:43:20;0.00;99.90
31271;DHT22;17904;47.420;9.310;2023-02-01T02:46:23;0.00;99.90
31271;DHT22;17904;47.420;9.310;2023-02-01T02:49:19;0.00;99.90
31271;DHT22;17904;47.420;9.310;2023-02-01T02:51:56;-0.10;99.90
31271;DHT22;17904;47.420;9.310;2023-02-01T02:54:47;-0.10;99.90
31271;DHT22;17904;47.420;9.310;2023-02-01T03:00:13;-0.10;99.90
31271;DHT22;17904;47.420;9.310;2023-02-01T03:03:01;-0.10;99.90
31271;DHT22;17904;47.420;9.310;2023-02-01T03:05:48;-0.10;99.90
31271;DHT22;17904;47.420;9.310;2023-02-01T03:08:30;-0.10;99.90
31271;DHT22;17904;47.420;9.310;2023-02-01T03:11:02;-0.10;99.90
31271;DHT22;17904;47.420;9.310;2023-02-01T03:19:00;-0.10;99.90
31271;DHT22;17904;47.420;9.310;2023-02-01T03:21:53;-0.10;99.90
31271;DHT22;17904;47.420;9.310;2023-02-01T03:24:31;-0.10;99.90
31271;DHT22;17904;47.420;9.310;2023-02-01T03:27:12;-0.20;99.90
31271;DHT22;17904;47.420;9.310;2023-02-01T03:29:49;-0.20;99.90
31271;DHT22;17904;47.420;9.310;2023-02-01T03:32:17;-0.20;99.90
31271;DHT22;17904;47.420;9.310;2023-02-01T03:34:45;-0.20;99.90
31271;DHT22;17904;47.420;9.310;2023-02-01T03:37:16;-0.20;99.90
31271;DHT22;17904;47.420;9.310;2023-02-01T03:39:51;-0.20;99.90
31271;DHT22;17904;47.420;9.310;2023-02-01T03:42:42;-0.20;99.90
31271;DHT22;17904;47.420;9.310;2023-02-01T03:45:29;-0.20;99.90
31271;DHT22;17904;47.420;9.310;2023-02-01T03:47:59;-0.20;99.90
31271;DHT22;17904;47.420;9.310;2023-02-01T03:50:28;-0.20;99.90
31271;DHT22;17904;47.420;9.310;2023-02-01T03:53:08;-0.20;99.90
31271;DHT22;17904;47.420;9.310;2023-02-01T03:55:38;-0.20;99.90
31271;DHT22;17904;47.420;9.310;2023-02-01T03:58:13;-0.20;99.90
31271;DHT22;17904;47.420;9.310;2023-02-01T04:00:42;-0.10;99.90
31271;DHT22;17904;47.420;9.310;2023-02-01T04:03:10;-0.20;99.90
31271;DHT22;17904;47.420;9.310;2023-02-01T04:05:37;-0.10;99.90
31271;DHT22;17904;47.420;9.310;2023-02-01T04:08:06;-0.10;99.90
31271;DHT22;17904;47.420;9.310;2023-02-01T04:10:33;-0.10;99.90
31271;DHT22;17904;47.420;9.310;2023-02-01T04:13:00;-0.10;99.90
31271;DHT22;17904;47.420;9.310;2023-02-01T04:15:26;0.00;99.90
31271;DHT22;17904;47.420;9.310;2023-02-01T04:17:53;0.00;99.90
31271;DHT22;17904;47.420;9.310;2023-02-01T04:20:20;0.10;99.90
31271;DHT22;17904;47.420;9.310;2023-02-01T04:22:47;0.10;99.90
31271;DHT22;17904;47.420;9.310;2023-02-01T04:25:14;0.20;99.90
31271;DHT22;17904;47.420;9.310;2023-02-01T04:27:40;0.20;99.90
31271;DHT22;17904;47.420;9.310;2023-02-01T04:30:07;0.30;99.90
31271;DHT22;17904;47.420;9.310;2023-02-01T04:32:37;0.30;99.90
31271;DHT22;17904;47.420;9.310;2023-02-01T04:35:04;0.40;99.90
31271;DHT22;17904;47.420;9.310;2023-02-01T04:37:31;0.50;99.90
31271;DHT22;17904;47.420;9.310;2023-02-01T04:39:57;0.60;99.90
31271;DHT22;17904;47.420;9.310;2023-02-01T04:42:24;0.70;99.90
31271;DHT22;17904;47.420;9.310;2023-02-01T04:44:51;0.80;99.90
31271;DHT22;17904;47.420;9.310;2023-02-01T04:47:18;0.80;99.90
31271;DHT22;17904;47.420;9.310;2023-02-01T04:49:44;0.90;99.90
31271;DHT22;17904;47.420;9.310;2023-02-01T04:52:11;1.00;99.90
31271;DHT22;17904;47.420;9.310;2023-02-01T04:54:38;1.10;99.90
31271;DHT22;17904;47.420;9.310;2023-02-01T04:57:04;1.10;99.90
31271;DHT22;17904;47.420;9.310;2023-02-01T04:59:31;1.20;99.90
31271;DHT22;17904;47.420;9.310;2023-02-01T05:01:58;1.30;99.90
31271;DHT22;17904;47.420;9.310;2023-02-01T05:04:24;1.30;99.90
31271;DHT22;17904;47.420;9.310;2023-02-01T05:06:51;1.40;99.90
31271;DHT22;17904;47.420;9.310;2023-02-01T05:09:17;1.40;99.90
31271;DHT22;17904;47.420;9.310;2023-02-01T05:11:44;1.50;99.90
31271;DHT22;17904;47.420;9.310;2023-02-01T05:14:30;1.50;99.90
31271;DHT22;17904;47.420;9.310;2023-02-01T05:16:56;1.50;99.90
31271;DHT22;17904;47.420;9.310;2023-02-01T05:19:23;1.50;99.90
31271;DHT22;17904;47.420;9.310;2023-02-01T05:21:49;1.60;99.90
31271;DHT22;17904;47.420;9.310;2023-02-01T05:24:16;1.60;99.90
31271;DHT22;17904;47.420;9.310;2023-02-01T05:26:48;1.60;99.90
31271;DHT22;17904;47.420;9.310;2023-02-01T05:29:15;1.70;99.90
31271;DHT22;17904;47.420;9.310;2023-02-01T05:31:44;1.80;99.90
31271;DHT22;17904;47.420;9.310;2023-02-01T05:34:12;1.80;99.90
31271;DHT22;17904;47.420;9.310;2023-02-01T05:36:39;1.90;99.90
31271;DHT22;17904;47.420;9.310;2023-02-01T05:39:06;1.90;99.90
31271;DHT22;17904;47.420;9.310;2023-02-01T05:41:32;1.90;99.90
31271;DHT22;17904;47.420;9.310;2023-02-01T05:43:59;1.90;99.90
31271;DHT22;17904;47.420;9.310;2023-02-01T05:46:26;1.90;99.90
31271;DHT22;17904;47.420;9.310;2023-02-01T05:48:52;1.90;99.90
31271;DHT22;17904;47.420;9.310;2023-02-01T05:51:19;1.90;99.90
31271;DHT22;17904;47.420;9.310;2023-02-01T05:53:46;1.80;99.90
31271;DHT22;17904;47.420;9.310;2023-02-01T05:56:12;1.80;99.90
31271;DHT22;17904;47.420;9.310;2023-02-01T05:58:39;1.80;99.90
31271;DHT22;17904;47.420;9.310;2023-02-01T06:01:05;1.80;99.90
31271;DHT22;17904;47.420;9.310;2023-02-01T06:03:32;1.80;99.90
31271;DHT22;17904;47.420;9.310;2023-02-01T06:05:59;1.90;99.90
31271;DHT22;17904;47.420;9.310;2023-02-01T06:08:27;1.90;99.90
31271;DHT22;17904;47.420;9.310;2023-02-01T06:11:02;1.90;99.90
31271;DHT22;17904;47.420;9.310;2023-02-01T06:13:30;1.90;99.90
31271;DHT22;17904;47.420;9.310;2023-02-01T06:16:00;1.90;99.90
31271;DHT22;17904;47.420;9.310;2023-02-01T06:18:27;2.00;99.90
31271;DHT22;17904;47.420;9.310;2023-02-01T06:20:55;2.00;99.90
31271;DHT22;17904;47.420;9.310;2023-02-01T06:23:22;2.00;99.90
31271;DHT22;17904;47.420;9.310;2023-02-01T06:25:58;2.10;99.90
31271;DHT22;17904;47.420;9.310;2023-02-01T06:28:26;2.10;99.90
31271;DHT22;17904;47.420;9.310;2023-02-01T06:30:54;2.10;99.90
31271;DHT22;17904;47.420;9.310;2023-02-01T06:33:21;2.10;99.90
31271;DHT22;17904;47.420;9.310;2023-02-01T06:35:48;2.20;99.90
31271;DHT22;17904;47.420;9.310;2023-02-01T06:38:15;2.20;99.90
31271;DHT22;17904;47.420;9.310;2023-02-01T06:40:41;2.20;99.90
31271;DHT22;17904;47.420;9.310;2023-02-01T06:43:08;2.30;99.90
31271;DHT22;17904;47.420;9.310;2023-02-01T06:45:35;2.30;99.90
31271;DHT22;17904;47.420;9.310;2023-02-01T06:48:01;2.30;99.90
31271;DHT22;17904;47.420;9.310;2023-02-01T06:50:28;2.30;99.90
31271;DHT22;17904;47.420;9.310;2023-02-01T06:52:55;2.30;99.90
31271;DHT22;17904;47.420;9.310;2023-02-01T06:55:22;2.30;99.90
31271;DHT22;17904;47.420;9.310;2023-02-01T06:57:53;2.40;99.90
31271;DHT22;17904;47.420;9.310;2023-02-01T07:00:20;2.40;99.90
31271;DHT22;17904;47.420;9.310;2023-02-01T07:02:48;2.30;99.90
31271;DHT22;17904;47.420;9.310;2023-02-01T07:05:15;2.30;99.90
31271;DHT22;17904;47.420;9.310;2023-02-01T07:07:42;2.30;99.90
31271;DHT22;17904;47.420;9.310;2023-02-01T07:10:09;2.30;99.90
31271;DHT22;17904;47.420;9.310;2023-02-01T07:12:36;2.30;99.90
31271;DHT22;17904;47.420;9.310;2023-02-01T07:15:04;2.30;99.90
31271;DHT22;17904;47.420;9.310;2023-02-01T07:17:31;2.40;99.90
31271;DHT22;17904;47.420;9.310;2023-02-01T07:19:58;2.40;99.90
31271;DHT22;17904;47.420;9.310;2023-02-01T07:22:28;2.50;99.90
31271;DHT22;17904;47.420;9.310;2023-02-01T07:24:54;2.50;99.90
31271;DHT22;17904;47.420;9.310;2023-02-01T07:27:21;2.50;99.90
31271;DHT22;17904;47.420;9.310;2023-02-01T07:29:51;2.50;99.90
31271;DHT22;17904;47.420;9.310;2023-02-01T07:32:18;2.50;99.90
31271;DHT22;17904;47.420;9.310;2023-02-01T07:34:45;2.50;99.90
31271;DHT22;17904;47.420;9.310;2023-02-01T07:37:12;2.60;99.90
31271;DHT22;17904;47.420;9.310;2023-02-01T07:39:38;2.60;99.90
31271;DHT22;17904;47.420;9.310;2023-02-01T07:42:05;2.60;99.90
31271;DHT22;17904;47.420;9.310;2023-02-01T07:44:33;2.60;99.90
31271;DHT22;17904;47.420;9.310;2023-02-01T07:46:59;2.70;99.90
31271;DHT22;17904;47.420;9.310;2023-02-01T07:49:26;2.70;99.90
31271;DHT22;17904;47.420;9.310;2023-02-01T07:51:53;2.70;99.90
31271;DHT22;17904;47.420;9.310;2023-02-01T07:54:19;2.70;99.90
31271;DHT22;17904;47.420;9.310;2023-02-01T07:56:46;2.70;99.90
31271;DHT22;17904;47.420;9.310;2023-02-01T07:59:13;2.70;99.90
31271;DHT22;17904;47.420;9.310;2023-02-01T08:01:39;2.70;99.90
31271;DHT22;17904;47.420;9.310;2023-02-01T08:04:07;2.80;99.90
31271;DHT22;17904;47.420;9.310;2023-02-01T08:06:36;2.80;99.90
31271;DHT22;17904;47.420;9.310;2023-02-01T08:09:03;2.80;99.90
31271;DHT22;17904;47.420;9.310;2023-02-01T08:11:31;2.80;99.90
31271;DHT22;17904;47.420;9.310;2023-02-01T08:13:58;2.80;99.90
31271;DHT22;17904;47.420;9.310;2023-02-01T08:16:25;2.80;99.90
31271;DHT22;17904;47.420;9.310;2023-02-01T08:18:52;2.80;99.90
31271;DHT22;17904;47.420;9.310;2023-02-01T08:21:26;2.90;99.90
31271;DHT22;17904;47.420;9.310;2023-02-01T08:23:52;2.90;99.90
31271;DHT22;17904;47.420;9.310;2023-02-01T08:26:23;2.90;99.90
31271;DHT22;17904;47.420;9.310;2023-02-01T08:28:56;2.90;99.90
31271;DHT22;17904;47.420;9.310;2023-02-01T08:31:24;2.90;99.90
31271;DHT22;17904;47.420;9.310;2023-02-01T08:33:55;2.90;99.90
31271;DHT22;17904;47.420;9.310;2023-02-01T08:36:22;2.90;99.90
31271;DHT22;17904;47.420;9.310;2023-02-01T08:38:50;2.90;99.90
31271;DHT22;17904;47.420;9.310;2023-02-01T08:41:19;3.00;99.90
31271;DHT22;17904;47.420;9.310;2023-02-01T08:43:46;3.00;99.90
31271;DHT22;17904;47.420;9.310;2023-02-01T08:46:14;3.10;99.90
31271;DHT22;17904;47.420;9.310;2023-02-01T08:48:42;3.20;99.90
31271;DHT22;17904;47.420;9.310;2023-02-01T08:51:11;3.20;99.90
31271;DHT22;17904;47.420;9.310;2023-02-01T08:53:38;3.20;99.90
31271;DHT22;17904;47.420;9.310;2023-02-01T08:56:09;3.20;99.90
31271;DHT22;17904;47.420;9.310;2023-02-01T08:58:37;3.30;99.90
31271;DHT22;17904;47.420;9.310;2023-02-01T09:01:05;3.30;99.90
31271;DHT22;17904;47.420;9.310;2023-02-01T09:03:33;3.40;99.90
31271;DHT22;17904;47.420;9.310;2023-02-01T09:06:03;3.40;99.90
31271;DHT22;17904;47.420;9.310;2023-02-01T09:08:31;3.40;99.90
31271;DHT22;17904;47.420;9.310;2023-02-01T09:11:01;3.40;99.90
31271;DHT22;17904;47.420;9.310;2023-02-01T09:13:30;3.30;99.90
31271;DHT22;17904;47.420;9.310;2023-02-01T09:15:57;3.40;99.90
31271;DHT22;17904;47.420;9.310;2023-02-01T09:18:25;3.40;99.90
31271;DHT22;17904;47.420;9.310;2023-02-01T09:20:52;3.40;99.90
31271;DHT22;17904;47.420;9.310;2023-02-01T09:23:19;3.40;99.90
31271;DHT22;17904;47.420;9.310;2023-02-01T09:25:47;3.40;99.90
31271;DHT22;17904;47.420;9.310;2023-02-01T09:28:17;3.40;99.90
31271;DHT22;17904;47.420;9.310;2023-02-01T09:30:44;3.50;99.90
31271;DHT22;17904;47.420;9.310;2023-02-01T09:33:11;3.40;99.90
31271;DHT22;17904;47.420;9.310;2023-02-01T09:35:38;3.40;99.90
31271;DHT22;17904;47.420;9.310;2023-02-01T09:38:05;3.40;99.90
31271;DHT22;17904;47.420;9.310;2023-02-01T09:40:34;3.50;99.90
31271;DHT22;17904;47.420;9.310;2023-02-01T09:48:20;3.50;99.90
31271;DHT22;17904;47.420;9.310;2023-02-01T09:50:56;3.50;99.90
31271;DHT22;17904;47.420;9.310;2023-02-01T09:53:37;3.60;99.90
31271;DHT22;17904;47.420;9.310;2023-02-01T09:56:07;3.70;99.90
31271;DHT22;17904;47.420;9.310;2023-02-01T10:01:20;3.70;99.90
31271;DHT22;17904;47.420;9.310;2023-02-01T10:03:49;3.80;99.90
31271;DHT22;17904;47.420;9.310;2023-02-01T10:06:32;3.70;99.90
31271;DHT22;17904;47.420;9.310;2023-02-01T10:09:09;3.70;99.90
31271;DHT22;17904;47.420;9.310;2023-02-01T10:23:00;3.70;99.90
31271;DHT22;17904;47.420;9.310;2023-02-01T10:25:55;3.70;99.90
31271;DHT22;17904;47.420;9.310;2023-02-01T10:28:24;3.70;99.90
31271;DHT22;17904;47.420;9.310;2023-02-01T10:30:58;3.80;99.90
31271;DHT22;17904;47.420;9.310;2023-02-01T10:33:51;3.80;99.90
31271;DHT22;17904;47.420;9.310;2023-02-01T10:36:23;3.80;99.90
31271;DHT22;17904;47.420;9.310;2023-02-01T10:38:52;3.80;99.90
31271;DHT22;17904;47.420;9.310;2023-02-01T10:41:19;3.90;99.90
31271;DHT22;17904;47.420;9.310;2023-02-01T10:43:53;3.90;99.90
31271;DHT22;17904;47.420;9.310;2023-02-01T10:46:23;3.90;99.90
31271;DHT22;17904;47.420;9.310;2023-02-01T10:48:52;4.00;99.90
31271;DHT22;17904;47.420;9.310;2023-02-01T10:51:42;4.00;99.90
31271;DHT22;17904;47.420;9.310;2023-02-01T10:54:20;4.10;99.90
31271;DHT22;17904;47.420;9.310;2023-02-01T10:56:49;4.10;99.90
31271;DHT22;17904;47.420;9.310;2023-02-01T10:59:23;4.20;99.90
31271;DHT22;17904;47.420;9.310;2023-02-01T11:02:00;4.20;99.90
31271;DHT22;17904;47.420;9.310;2023-02-01T11:04:33;4.20;99.90
31271;DHT22;17904;47.420;9.310;2023-02-01T11:09:40;4.30;99.90
31271;DHT22;17904;47.420;9.310;2023-02-01T11:12:25;4.30;99.90
31271;DHT22;17904;47.420;9.310;2023-02-01T11:17:44;4.40;99.90
31271;DHT22;17904;47.420;9.310;2023-02-01T11:20:20;4.40;99.90
31271;DHT22;17904;47.420;9.310;2023-02-01T11:22:55;4.40;99.90
31271;DHT22;17904;47.420;9.310;2023-02-01T11:25:23;4.30;99.90
31271;DHT22;17904;47.420;9.310;2023-02-01T11:27:53;4.40;99.90
31271;DHT22;17904;47.420;9.310;2023-02-01T11:30:38;4.40;99.90
31271;DHT22;17904;47.420;9.310;2023-02-01T11:33:12;4.50;99.90
31271;DHT22;17904;47.420;9.310;2023-02-01T11:35:41;4.50;99.90
31271;DHT22;17904;47.420;9.310;2023-02-01T11:38:20;4.50;99.90
31271;DHT22;17904;47.420;9.310;2023-02-01T11:40:48;4.60;99.90
31271;DHT22;17904;47.420;9.310;2023-02-01T11:43:25;4.70;99.90
31271;DHT22;17904;47.420;9.310;2023-02-01T11:46:17;4.80;99.90
31271;DHT22;17904;47.420;9.310;2023-02-01T11:48:48;4.90;99.90
31271;DHT22;17904;47.420;9.310;2023-02-01T11:51:31;5.00;99.90
31271;DHT22;17904;47.420;9.310;2023-02-01T11:59:49;5.00;99.90
31271;DHT22;17904;47.420;9.310;2023-02-01T12:08:17;5.00;99.90
31271;DHT22;17904;47.420;9.310;2023-02-01T12:10:56;5.00;99.90
31271;DHT22;17904;47.420;9.310;2023-02-01T12:25:12;5.10;99.90
31271;DHT22;17904;47.420;9.310;2023-02-01T12:30:41;5.10;99.90
31271;DHT22;17904;47.420;9.310;2023-02-01T12:36:12;5.10;99.90
31271;DHT22;17904;47.420;9.310;2023-02-01T12:39:02;5.10;99.90
31271;DHT22;17904;47.420;9.310;2023-02-01T12:49:52;5.00;99.90
31271;DHT22;17904;47.420;9.310;2023-02-01T12:52:26;4.90;99.90
31271;DHT22;17904;47.420;9.310;2023-02-01T12:57:55;4.90;99.90
31271;DHT22;17904;47.420;9.310;2023-02-01T13:00:36;4.90;99.90
31271;DHT22;17904;47.420;9.310;2023-02-01T13:03:39;4.80;99.90
31271;DHT22;17904;47.420;9.310;2023-02-01T13:06:15;4.80;99.90
31271;DHT22;17904;47.420;9.310;2023-02-01T13:08:45;4.80;99.90
31271;DHT22;17904;47.420;9.310;2023-02-01T13:11:48;4.80;99.90
31271;DHT22;17904;47.420;9.310;2023-02-01T13:14:33;4.80;99.90
31271;DHT22;17904;47.420;9.310;2023-02-01T13:19:56;4.80;99.90
31271;DHT22;17904;47.420;9.310;2023-02-01T13:22:40;4.70;99.90
31271;DHT22;17904;47.420;9.310;2023-02-01T13:27:37;4.60;99.90
31271;DHT22;17904;47.420;9.310;2023-02-01T13:30:06;4.60;99.90
31271;DHT22;17904;47.420;9.310;2023-02-01T13:32:50;4.60;99.90
31271;DHT22;17904;47.420;9.310;2023-02-01T13:44:01;4.60;99.90
31271;DHT22;17904;47.420;9.310;2023-02-01T13:46:29;4.60;99.90
31271;DHT22;17904;47.420;9.310;2023-02-01T13:49:02;4.50;99.90
31271;DHT22;17904;47.420;9.310;2023-02-01T13:51:43;4.60;99.90
31271;DHT22;17904;47.420;9.310;2023-02-01T13:56:57;4.50;99.90
31271;DHT22;17904;47.420;9.310;2023-02-01T14:05:11;4.50;99.90
31271;DHT22;17904;47.420;9.310;2023-02-01T14:11:03;4.40;99.90
31271;DHT22;17904;47.420;9.310;2023-02-01T14:13:41;4.40;99.90
31271;DHT22;17904;47.420;9.310;2023-02-01T14:16:14;4.40;99.90
31271;DHT22;17904;47.420;9.310;2023-02-01T14:21:13;4.50;99.90
31271;DHT22;17904;47.420;9.310;2023-02-01T14:24:01;4.50;99.90
31271;DHT22;17904;47.420;9.310;2023-02-01T14:26:49;4.50;99.90
31271;DHT22;17904;47.420;9.310;2023-02-01T14:32:30;4.50;99.90
31271;DHT22;17904;47.420;9.310;2023-02-01T14:34:54;4.60;99.90
31271;DHT22;17904;47.420;9.310;2023-02-01T14:37:28;4.60;99.90
31271;DHT22;17904;47.420;9.310;2023-02-01T14:40:02;4.60;99.90
31271;DHT22;17904;47.420;9.310;2023-02-01T14:47:56;4.70;99.90
31271;DHT22;17904;47.420;9.310;2023-02-01T14:50:43;4.70;99.90
31271;DHT22;17904;47.420;9.310;2023-02-01T14:55:45;4.70;99.90
31271;DHT22;17904;47.420;9.310;2023-02-01T15:03:48;4.60;99.90
31271;DHT22;17904;47.420;9.310;2023-02-01T15:09:18;4.50;99.90
31271;DHT22;17904;47.420;9.310;2023-02-01T15:14:46;4.50;99.90
31271;DHT22;17904;47.420;9.310;2023-02-01T15:17:22;4.40;99.90
31271;DHT22;17904;47.420;9.310;2023-02-01T15:19:57;4.40;99.90
31271;DHT22;17904;47.420;9.310;2023-02-01T15:22:26;4.40;99.90
31271;DHT22;17904;47.420;9.310;2023-02-01T15:24:58;4.40;99.90
31271;DHT22;17904;47.420;9.310;2023-02-01T15:27:26;4.40;99.90
31271;DHT22;17904;47.420;9.310;2023-02-01T15:29:53;4.30;99.90
31271;DHT22;17904;47.420;9.310;2023-02-01T15:32:39;4.30;99.90
31271;DHT22;17904;47.420;9.310;2023-02-01T15:35:43;4.40;99.90
31271;DHT22;17904;47.420;9.310;2023-02-01T15:43:38;4.30;99.90
31271;DHT22;17904;47.420;9.310;2023-02-01T15:46:12;4.30;99.90
31271;DHT22;17904;47.420;9.310;2023-02-01T15:48:49;4.30;99.90
31271;DHT22;17904;47.420;9.310;2023-02-01T15:51:22;4.30;99.90
31271;DHT22;17904;47.420;9.310;2023-02-01T15:54:01;4.20;99.90
31271;DHT22;17904;47.420;9.310;2023-02-01T15:56:34;4.20;99.90
31271;DHT22;17904;47.420;9.310;2023-02-01T15:59:05;4.30;99.90
31271;DHT22;17904;47.420;9.310;2023-02-01T16:01:37;4.20;99.90
31271;DHT22;17904;47.420;9.310;2023-02-01T16:04:18;4.30;99.90
31271;DHT22;17904;47.420;9.310;2023-02-01T16:07:21;4.30;99.90
31271;DHT22;17904;47.420;9.310;2023-02-01T16:09:53;4.20;99.90
31271;DHT22;17904;47.420;9.310;2023-02-01T16:14:51;4.10;99.90
31271;DHT22;17904;47.420;9.310;2023-02-01T16:17:18;4.10;99.90
31271;DHT22;17904;47.420;9.310;2023-02-01T16:19:44;4.00;99.90
31271;DHT22;17904;47.420;9.310;2023-02-01T16:22:11;4.10;99.90
31271;DHT22;17904;47.420;9.310;2023-02-01T16:24:38;4.10;99.90
31271;DHT22;17904;47.420;9.310;2023-02-01T16:27:04;4.00;99.90
31271;DHT22;17904;47.420;9.310;2023-02-01T16:29:33;4.00;99.90
31271;DHT22;17904;47.420;9.310;2023-02-01T16:32:00;4.00;99.90
31271;DHT22;17904;47.420;9.310;2023-02-01T16:34:27;4.00;99.90
31271;DHT22;17904;47.420;9.310;2023-02-01T16:36:54;3.90;99.90
31271;DHT22;17904;47.420;9.310;2023-02-01T16:39:24;3.90;99.90
31271;DHT22;17904;47.420;9.310;2023-02-01T16:41:50;3.90;99.90
31271;DHT22;17904;47.420;9.310;2023-02-01T16:44:17;3.90;99.90
31271;DHT22;17904;47.420;9.310;2023-02-01T16:46:46;3.80;99.90
31271;DHT22;17904;47.420;9.310;2023-02-01T16:49:23;3.80;99.90
31271;DHT22;17904;47.420;9.310;2023-02-01T16:51:52;3.80;99.90
31271;DHT22;17904;47.420;9.310;2023-02-01T16:54:21;3.80;99.90
31271;DHT22;17904;47.420;9.310;2023-02-01T16:56:49;3.80;99.90
31271;DHT22;17904;47.420;9.310;2023-02-01T16:59:15;3.70;99.90
31271;DHT22;17904;47.420;9.310;2023-02-01T17:01:42;3.80;99.90
31271;DHT22;17904;47.420;9.310;2023-02-01T17:04:09;3.80;99.90
31271;DHT22;17904;47.420;9.310;2023-02-01T17:06:37;3.80;99.90
31271;DHT22;17904;47.420;9.310;2023-02-01T17:09:05;3.70;99.90
31271;DHT22;17904;47.420;9.310;2023-02-01T17:11:32;3.70;99.90
31271;DHT22;17904;47.420;9.310;2023-02-01T17:14:13;3.70;99.90
31271;DHT22;17904;47.420;9.310;2023-02-01T17:16:40;3.70;99.90
31271;DHT22;17904;47.420;9.310;2023-02-01T17:19:12;3.60;99.90
31271;DHT22;17904;47.420;9.310;2023-02-01T17:21:52;3.60;99.90
31271;DHT22;17904;47.420;9.310;2023-02-01T17:24:23;3.70;99.90
31271;DHT22;17904;47.420;9.310;2023-02-01T17:26:52;3.70;99.90
31271;DHT22;17904;47.420;9.310;2023-02-01T17:29:19;3.60;99.90
31271;DHT22;17904;47.420;9.310;2023-02-01T17:31:47;3.60;99.90
31271;DHT22;17904;47.420;9.310;2023-02-01T17:34:15;3.60;99.90
31271;DHT22;17904;47.420;9.310;2023-02-01T17:36:43;3.60;99.90
31271;DHT22;17904;47.420;9.310;2023-02-01T17:39:10;3.50;99.90
31271;DHT22;17904;47.420;9.310;2023-02-01T17:41:37;3.60;99.90
31271;DHT22;17904;47.420;9.310;2023-02-01T17:44:03;3.60;99.90
31271;DHT22;17904;47.420;9.310;2023-02-01T17:46:31;3.60;99.90
31271;DHT22;17904;47.420;9.310;2023-02-01T17:48:57;3.60;99.90
31271;DHT22;17904;47.420;9.310;2023-02-01T17:51:26;3.60;99.90
31271;DHT22;17904;47.420;9.310;2023-02-01T17:53:53;3.50;99.90
31271;DHT22;17904;47.420;9.310;2023-02-01T17:56:21;3.50;99.90
31271;DHT22;17904;47.420;9.310;2023-02-01T17:58:48;3.50;99.90
31271;DHT22;17904;47.420;9.310;2023-02-01T18:01:23;3.50;99.90
31271;DHT22;17904;47.420;9.310;2023-02-01T18:03:50;3.50;99.90
31271;DHT22;17904;47.420;9.310;2023-02-01T18:06:23;3.50;99.90
31271;DHT22;17904;47.420;9.310;2023-02-01T18:08:52;3.50;99.90
31271;DHT22;17904;47.420;9.310;2023-02-01T18:11:21;3.50;99.90
31271;DHT22;17904;47.420;9.310;2023-02-01T18:13:50;3.50;99.90
31271;DHT22;17904;47.420;9.310;2023-02-01T18:16:24;3.50;99.90
31271;DHT22;17904;47.420;9.310;2023-02-01T18:18:51;3.50;99.90
31271;DHT22;17904;47.420;9.310;2023-02-01T18:21:21;3.60;99.90
31271;DHT22;17904;47.420;9.310;2023-02-01T18:23:48;3.50;99.90
31271;DHT22;17904;47.420;9.310;2023-02-01T18:26:16;3.50;99.90
31271;DHT22;17904;47.420;9.310;2023-02-01T18:28:43;3.50;99.90
31271;DHT22;17904;47.420;9.310;2023-02-01T18:31:21;3.50;99.90
31271;DHT22;17904;47.420;9.310;2023-02-01T18:33:49;3.50;99.90
31271;DHT22;17904;47.420;9.310;2023-02-01T18:36:17;3.50;99.90
31271;DHT22;17904;47.420;9.310;2023-02-01T18:38:44;3.50;99.90
31271;DHT22;17904;47.420;9.310;2023-02-01T18:41:17;3.50;99.90
31271;DHT22;17904;47.420;9.310;2023-02-01T18:43:44;3.50;99.90
31271;DHT22;17904;47.420;9.310;2023-02-01T18:46:10;3.50;99.90